sensor_id;sensor_type;location;lat;lon;timestamp;temperature;humidity
814;DHT22;389;48.710;9.392;2023-07-22T00:00:55;13.70;99.90
814;DHT22;389;48.710;9.392;2023-07-22T00:03:21;13.60;99.90
814;DHT22;389;48.710;9.392;2023-07-22T00:05:48;13.70;99.90
814;DHT22;389;48.710;9.392;2023-07-22T00:08:13;13.60;99.90
814;DHT22;389;48.710;9.392;2023-07-22T00:10:42;13.70;99.90
814;DHT22;389;48.710;9.392;2023-07-22T00:13:08;13.60;99.90
814;DHT22;389;48.710;9.392;2023-07-22T00:15:34;13.50;99.90
814;DHT22;389;48.710;9.392;2023-07-22T00:18:00;13.50;99.90
814;DHT22;389;48.710;9.392;2023-07-22T00:20:25;13.50;99.90
814;DHT22;389;48.710;9.392;2023-07-22T00:22:52;13.50;99.90
814;DHT22;389;48.710;9.392;2023-07-22T00:25:17;13.50;99.90
814;DHT22;389;48.710;9.392;2023-07-22T00:27:43;13.40;99.90
814;DHT22;389;48.710;9.392;2023-07-22T00:30:09;13.50;99.90
814;DHT22;389;48.710;9.392;2023-07-22T00:32:35;13.40;99.90
814;DHT22;389;48.710;9.392;2023-07-22T00:35:05;13.30;99.90
814;DHT22;389;48.710;9.392;2023-07-22T00:37:31;13.30;99.90
814;DHT22;389;48.710;9.392;2023-07-22T00:39:57;13.30;99.90
814;DHT22;389;48.710;9.392;2023-07-22T00:42:23;13.30;99.90
814;DHT22;389;48.710;9.392;2023-07-22T00:44:49;13.30;99.90
814;DHT22;389;48.710;9.392;2023-07-22T00:47:16;13.20;99.90
814;DHT22;389;48.710;9.392;2023-07-22T00:49:43;13.20;99.90
814;DHT22;389;48.710;9.392;2023-07-22T00:52:09;13.20;99.90
814;DHT22;389;48.710;9.392;2023-07-22T00:54:35;13.20;99.90
814;DHT22;389;48.710;9.392;2023-07-22T00:57:01;13.20;99.90
814;DHT22;389;48.710;9.392;2023-07-22T00:59:27;13.10;99.90
814;DHT22;389;48.710;9.392;2023-07-22T01:01:53;13.10;99.90
814;DHT22;389;48.710;9.392;2023-07-22T01:04:20;13.10;99.90
814;DHT22;389;48.710;9.392;2023-07-22T01:06:48;13.10;99.90
814;DHT22;389;48.710;9.392;2023-07-22T01:09:14;13.20;99.90
814;DHT22;389;48.710;9.392;2023-07-22T01:11:40;13.10;99.90
814;DHT22;389;48.710;9.392;2023-07-22T01:14:06;13.10;99.90
814;DHT22;389;48.710;9.392;2023-07-22T01:16:33;13.00;99.90
814;DHT22;389;48.710;9.392;2023-07-22T01:18:59;13.10;99.90
814;DHT22;389;48.710;9.392;2023-07-22T01:21:26;13.00;99.90
814;DHT22;389;48.710;9.392;2023-07-22T01:23:52;13.00;99.90
814;DHT22;389;48.710;9.392;2023-07-22T01:26:18;13.00;99.90
814;DHT22;389;48.710;9.392;2023-07-22T01:28:44;13.00;99.90
814;DHT22;389;48.710;9.392;2023-07-22T01:31:10;13.00;99.90
814;DHT22;389;48.710;9.392;2023-07-22T01:33:35;12.90;99.90
814;DHT22;389;48.710;9.392;2023-07-22T01:36:01;13.00;99.90
814;DHT22;389;48.710;9.392;2023-07-22T01:38:27;12.90;99.90
814;DHT22;389;48.710;9.392;2023-07-22T01:40:54;12.90;99.90
814;DHT22;389;48.710;9.392;2023-07-22T01:43:20;12.80;99.90
814;DHT22;389;48.710;9.392;2023-07-22T01:45:46;12.80;99.90
814;DHT22;389;48.710;9.392;2023-07-22T01:48:12;12.80;99.90
814;DHT22;389;48.710;9.392;2023-07-22T01:50:37;12.80;99.90
814;DHT22;389;48.710;9.392;2023-07-22T01:53:03;12.80;99.90
814;DHT22;389;48.710;9.392;2023-07-22T01:55:30;12.80;99.90
814;DHT22;389;48.710;9.392;2023-07-22T01:57:57;12.70;99.90
814;DHT22;389;48.710;9.392;2023-07-22T02:00:23;12.70;99.90
814;DHT22;389;48.710;9.392;2023-07-22T02:02:48;12.70;99.90
814;DHT22;389;48.710;9.392;2023-07-22T02:05:14;12.70;99.90
814;DHT22;389;48.710;9.392;2023-07-22T02:07:39;12.60;99.90
814;DHT22;389;48.710;9.392;2023-07-22T02:10:05;12.60;99.90
814;DHT22;389;48.710;9.392;2023-07-22T02:12:31;12.60;99.90
814;DHT22;389;48.710;9.392;2023-07-22T02:14:57;12.70;99.90
814;DHT22;389;48.710;9.392;2023-07-22T02:17:22;12.60;99.90
814;DHT22;389;48.710;9.392;2023-07-22T02:19:49;12.50;99.90
814;DHT22;389;48.710;9.392;2023-07-22T02:22:14;12.50;99.90
814;DHT22;389;48.710;9.392;2023-07-22T02:24:40;12.50;99.90
814;DHT22;389;48.710;9.392;2023-07-22T02:27:06;12.50;99.90
814;DHT22;389;48.710;9.392;2023-07-22T02:29:34;12.50;99.90
814;DHT22;389;48.710;9.392;2023-07-22T02:31:59;12.60;99.90
814;DHT22;389;48.710;9.392;2023-07-22T02:34:25;12.50;99.90
814;DHT22;389;48.710;9.392;2023-07-22T02:36:50;12.50;99.90
814;DHT22;389;48.710;9.392;2023-07-22T02:39:16;12.50;99.90
814;DHT22;389;48.710;9.392;2023-07-22T02:41:41;12.50;99.90
814;DHT22;389;48.710;9.392;2023-07-22T02:44:07;12.50;99.90
814;DHT22;389;48.710;9.392;2023-07-22T02:46:33;12.40;99.90
814;DHT22;389;48.710;9.392;2023-07-22T02:48:58;12.40;99.90
814;DHT22;389;48.710;9.392;2023-07-22T02:51:24;12.40;99.90
814;DHT22;389;48.710;9.392;2023-07-22T02:53:50;12.40;99.90
814;DHT22;389;48.710;9.392;2023-07-22T02:56:15;12.30;99.90
814;DHT22;389;48.710;9.392;2023-07-22T02:58:41;12.40;99.90
814;DHT22;389;48.710;9.392;2023-07-22T03:01:07;12.20;99.90
814;DHT22;389;48.710;9.392;2023-07-22T03:03:34;12.20;99.90
814;DHT22;389;48.710;9.392;2023-07-22T03:06:01;12.20;99.90
814;DHT22;389;48.710;9.392;2023-07-22T03:08:27;12.20;99.90
814;DHT22;389;48.710;9.392;2023-07-22T03:10:52;12.20;99.90
814;DHT22;389;48.710;9.392;2023-07-22T03:13:18;12.20;99.90
814;DHT22;389;48.710;9.392;2023-07-22T03:15:44;12.20;99.90
814;DHT22;389;48.710;9.392;2023-07-22T03:18:10;12.20;99.90
814;DHT22;389;48.710;9.392;2023-07-22T03:20:39;12.20;99.90
814;DHT22;389;48.710;9.392;2023-07-22T03:23:05;12.20;99.90
814;DHT22;389;48.710;9.392;2023-07-22T03:25:32;12.20;99.90
814;DHT22;389;48.710;9.392;2023-07-22T03:28:01;12.20;99.90
814;DHT22;389;48.710;9.392;2023-07-22T03:30:27;12.20;99.90
814;DHT22;389;48.710;9.392;2023-07-22T03:32:53;12.10;99.90
814;DHT22;389;48.710;9.392;2023-07-22T03:35:18;12.20;99.90
814;DHT22;389;48.710;9.392;2023-07-22T03:37:44;12.20;99.90
814;DHT22;389;48.710;9.392;2023-07-22T03:40:11;12.20;99.90
814;DHT22;389;48.710;9.392;2023-07-22T03:42:42;12.20;99.90
814;DHT22;389;48.710;9.392;2023-07-22T03:45:08;12.30;99.90
814;DHT22;389;48.710;9.392;2023-07-22T03:47:35;12.20;99.90
814;DHT22;389;48.710;9.392;2023-07-22T03:50:01;12.20;99.90
814;DHT22;389;48.710;9.392;2023-07-22T03:52:27;12.20;99.90
814;DHT22;389;48.710;9.392;2023-07-22T03:54:52;12.20;99.90
814;DHT22;389;48.710;9.392;2023-07-22T03:57:18;12.30;99.90
814;DHT22;389;48.710;9.392;2023-07-22T03:59:43;12.40;99.90
814;DHT22;389;48.710;9.392;2023-07-22T04:02:09;12.30;99.90
814;DHT22;389;48.710;9.392;2023-07-22T04:04:34;12.30;99.90
814;DHT22;389;48.710;9.392;2023-07-22T04:07:00;12.30;99.90
814;DHT22;389;48.710;9.392;2023-07-22T04:09:27;12.50;99.90
814;DHT22;389;48.710;9.392;2023-07-22T04:11:52;12.40;99.90
814;DHT22;389;48.710;9.392;2023-07-22T04:14:18;12.40;99.90
814;DHT22;389;48.710;9.392;2023-07-22T04:16:44;12.50;99.90
814;DHT22;389;48.710;9.392;2023-07-22T04:19:09;12.50;99.90
814;DHT22;389;48.710;9.392;2023-07-22T04:21:35;12.70;99.90
814;DHT22;389;48.710;9.392;2023-07-22T04:24:00;12.70;99.90
814;DHT22;389;48.710;9.392;2023-07-22T04:26:26;12.70;99.90
814;DHT22;389;48.710;9.392;2023-07-22T04:31:19;12.80;99.90
814;DHT22;389;48.710;9.392;2023-07-22T04:33:45;12.90;99.90
814;DHT22;389;48.710;9.392;2023-07-22T04:36:10;12.90;99.90
814;DHT22;389;48.710;9.392;2023-07-22T04:38:36;13.10;99.90
814;DHT22;389;48.710;9.392;2023-07-22T04:41:03;13.10;99.90
814;DHT22;389;48.710;9.392;2023-07-22T04:43:30;13.20;99.90
814;DHT22;389;48.710;9.392;2023-07-22T04:45:55;13.20;99.90
814;DHT22;389;48.710;9.392;2023-07-22T04:48:21;13.30;99.90
814;DHT22;389;48.710;9.392;2023-07-22T04:50:50;13.50;99.90
814;DHT22;389;48.710;9.392;2023-07-22T04:53:17;13.50;99.90
814;DHT22;389;48.710;9.392;2023-07-22T04:55:43;13.70;99.90
814;DHT22;389;48.710;9.392;2023-07-22T04:58:09;13.70;99.90
814;DHT22;389;48.710;9.392;2023-07-22T05:00:36;13.80;99.90
814;DHT22;389;48.710;9.392;2023-07-22T05:03:03;13.90;99.90
814;DHT22;389;48.710;9.392;2023-07-22T05:05:28;14.10;99.90
814;DHT22;389;48.710;9.392;2023-07-22T05:07:54;14.50;99.90
814;DHT22;389;48.710;9.392;2023-07-22T05:10:21;14.70;99.90
814;DHT22;389;48.710;9.392;2023-07-22T05:12:50;15.20;99.90
814;DHT22;389;48.710;9.392;2023-07-22T05:15:16;15.40;99.90
814;DHT22;389;48.710;9.392;2023-07-22T05:17:42;15.70;99.90
814;DHT22;389;48.710;9.392;2023-07-22T05:20:07;16.00;99.90
814;DHT22;389;48.710;9.392;2023-07-22T05:22:37;16.30;99.90
814;DHT22;389;48.710;9.392;2023-07-22T05:25:03;16.60;99.90
814;DHT22;389;48.710;9.392;2023-07-22T05:27:29;16.80;99.90
814;DHT22;389;48.710;9.392;2023-07-22T05:29:55;17.20;99.90
814;DHT22;389;48.710;9.392;2023-07-22T05:32:21;17.40;99.90
814;DHT22;389;48.710;9.392;2023-07-22T05:34:46;17.70;99.90
814;DHT22;389;48.710;9.392;2023-07-22T05:37:12;18.00;99.40
814;DHT22;389;48.710;9.392;2023-07-22T05:39:37;18.40;99.10
814;DHT22;389;48.710;9.392;2023-07-22T05:42:03;18.60;97.50
814;DHT22;389;48.710;9.392;2023-07-22T05:44:29;18.80;96.60
814;DHT22;389;48.710;9.392;2023-07-22T05:46:54;18.80;96.20
814;DHT22;389;48.710;9.392;2023-07-22T05:49:20;18.80;95.90
814;DHT22;389;48.710;9.392;2023-07-22T05:51:46;18.70;95.90
814;DHT22;389;48.710;9.392;2023-07-22T05:54:11;18.60;95.70
814;DHT22;389;48.710;9.392;2023-07-22T05:56:37;18.60;95.40
814;DHT22;389;48.710;9.392;2023-07-22T05:59:02;18.60;95.40
814;DHT22;389;48.710;9.392;2023-07-22T06:01:28;18.60;95.40
814;DHT22;389;48.710;9.392;2023-07-22T06:03:53;18.80;95.10
814;DHT22;389;48.710;9.392;2023-07-22T06:06:19;19.00;94.90
814;DHT22;389;48.710;9.392;2023-07-22T06:08:44;19.00;95.10
814;DHT22;389;48.710;9.392;2023-07-22T06:11:10;19.20;94.90
814;DHT22;389;48.710;9.392;2023-07-22T06:13:35;19.50;94.80
814;DHT22;389;48.710;9.392;2023-07-22T06:16:01;20.00;94.70
814;DHT22;389;48.710;9.392;2023-07-22T06:18:28;20.20;94.20
814;DHT22;389;48.710;9.392;2023-07-22T06:20:53;20.60;93.20
814;DHT22;389;48.710;9.392;2023-07-22T06:23:19;20.90;92.80
814;DHT22;389;48.710;9.392;2023-07-22T06:25:44;21.40;92.40
814;DHT22;389;48.710;9.392;2023-07-22T06:28:10;21.60;91.40
814;DHT22;389;48.710;9.392;2023-07-22T06:30:35;21.90;90.90
814;DHT22;389;48.710;9.392;2023-07-22T06:33:01;22.00;90.60
814;DHT22;389;48.710;9.392;2023-07-22T06:35:26;22.30;90.40
814;DHT22;389;48.710;9.392;2023-07-22T06:37:52;22.50;89.70
814;DHT22;389;48.710;9.392;2023-07-22T06:40:18;22.50;88.30
814;DHT22;389;48.710;9.392;2023-07-22T06:42:43;22.60;88.50
814;DHT22;389;48.710;9.392;2023-07-22T06:45:09;22.70;88.10
814;DHT22;389;48.710;9.392;2023-07-22T06:47:35;22.80;87.80
814;DHT22;389;48.710;9.392;2023-07-22T06:50:02;22.90;87.10
814;DHT22;389;48.710;9.392;2023-07-22T06:52:28;23.00;86.50
814;DHT22;389;48.710;9.392;2023-07-22T06:54:53;23.30;86.00
814;DHT22;389;48.710;9.392;2023-07-22T06:57:19;23.50;85.20
814;DHT22;389;48.710;9.392;2023-07-22T06:59:44;23.80;83.10
814;DHT22;389;48.710;9.392;2023-07-22T07:02:10;24.00;83.10
814;DHT22;389;48.710;9.392;2023-07-22T07:04:36;24.20;83.30
814;DHT22;389;48.710;9.392;2023-07-22T07:07:01;24.40;83.10
814;DHT22;389;48.710;9.392;2023-07-22T07:09:28;24.40;82.10
814;DHT22;389;48.710;9.392;2023-07-22T07:11:53;24.30;81.60
814;DHT22;389;48.710;9.392;2023-07-22T07:14:22;24.20;81.70
814;DHT22;389;48.710;9.392;2023-07-22T07:16:48;24.00;82.30
814;DHT22;389;48.710;9.392;2023-07-22T07:19:14;23.90;82.30
814;DHT22;389;48.710;9.392;2023-07-22T07:21:40;23.70;82.70
814;DHT22;389;48.710;9.392;2023-07-22T07:24:06;23.60;82.00
814;DHT22;389;48.710;9.392;2023-07-22T07:26:31;23.50;82.60
814;DHT22;389;48.710;9.392;2023-07-22T07:28:57;23.40;83.40
814;DHT22;389;48.710;9.392;2023-07-22T07:31:22;23.30;83.10
814;DHT22;389;48.710;9.392;2023-07-22T07:33:48;23.20;83.10
814;DHT22;389;48.710;9.392;2023-07-22T07:36:14;23.20;83.90
814;DHT22;389;48.710;9.392;2023-07-22T07:38:40;23.20;84.60
814;DHT22;389;48.710;9.392;2023-07-22T07:41:06;23.20;83.90
814;DHT22;389;48.710;9.392;2023-07-22T07:43:37;23.20;83.10
814;DHT22;389;48.710;9.392;2023-07-22T07:46:24;23.20;83.20
814;DHT22;389;48.710;9.392;2023-07-22T07:48:51;23.10;84.20
814;DHT22;389;48.710;9.392;2023-07-22T07:51:19;23.10;84.40
814;DHT22;389;48.710;9.392;2023-07-22T07:53:45;23.00;83.80
814;DHT22;389;48.710;9.392;2023-07-22T07:56:16;22.90;84.40
814;DHT22;389;48.710;9.392;2023-07-22T07:58:42;22.80;84.20
814;DHT22;389;48.710;9.392;2023-07-22T08:01:07;22.90;85.40
814;DHT22;389;48.710;9.392;2023-07-22T08:03:34;23.00;86.00
814;DHT22;389;48.710;9.392;2023-07-22T08:06:01;23.10;85.50
814;DHT22;389;48.710;9.392;2023-07-22T08:08:26;23.30;85.30
814;DHT22;389;48.710;9.392;2023-07-22T08:11:18;23.30;83.60
814;DHT22;389;48.710;9.392;2023-07-22T08:13:44;23.40;83.10
814;DHT22;389;48.710;9.392;2023-07-22T08:16:12;23.60;83.70
814;DHT22;389;48.710;9.392;2023-07-22T08:18:38;23.70;84.20
814;DHT22;389;48.710;9.392;2023-07-22T08:21:05;23.80;83.70
814;DHT22;389;48.710;9.392;2023-07-22T08:23:32;23.90;82.30
814;DHT22;389;48.710;9.392;2023-07-22T08:25:58;24.00;82.90
814;DHT22;389;48.710;9.392;2023-07-22T08:28:23;24.10;81.70
814;DHT22;389;48.710;9.392;2023-07-22T08:30:49;24.10;80.50
814;DHT22;389;48.710;9.392;2023-07-22T08:33:15;24.10;79.70
814;DHT22;389;48.710;9.392;2023-07-22T08:35:41;24.20;78.90
814;DHT22;389;48.710;9.392;2023-07-22T08:38:08;24.30;78.90
814;DHT22;389;48.710;9.392;2023-07-22T08:40:34;24.30;79.70
814;DHT22;389;48.710;9.392;2023-07-22T08:43:02;24.40;77.80
814;DHT22;389;48.710;9.392;2023-07-22T08:45:30;24.40;77.00
814;DHT22;389;48.710;9.392;2023-07-22T08:47:58;24.40;77.60
814;DHT22;389;48.710;9.392;2023-07-22T08:50:28;24.40;77.70
814;DHT22;389;48.710;9.392;2023-07-22T08:52:54;24.50;75.10
814;DHT22;389;48.710;9.392;2023-07-22T08:55:20;24.60;73.20
814;DHT22;389;48.710;9.392;2023-07-22T08:57:48;24.70;75.20
814;DHT22;389;48.710;9.392;2023-07-22T09:00:16;24.80;74.40
814;DHT22;389;48.710;9.392;2023-07-22T09:02:42;24.90;74.80
814;DHT22;389;48.710;9.392;2023-07-22T09:05:08;25.00;71.20
814;DHT22;389;48.710;9.392;2023-07-22T09:07:35;25.10;65.70
814;DHT22;389;48.710;9.392;2023-07-22T09:10:02;25.20;62.70
814;DHT22;389;48.710;9.392;2023-07-22T09:12:28;25.30;64.20
814;DHT22;389;48.710;9.392;2023-07-22T09:14:54;25.40;63.60
814;DHT22;389;48.710;9.392;2023-07-22T09:17:19;25.40;61.80
814;DHT22;389;48.710;9.392;2023-07-22T09:19:45;25.40;61.80
814;DHT22;389;48.710;9.392;2023-07-22T09:22:11;25.40;61.20
814;DHT22;389;48.710;9.392;2023-07-22T09:24:36;25.40;61.70
814;DHT22;389;48.710;9.392;2023-07-22T09:27:02;25.40;60.60
814;DHT22;389;48.710;9.392;2023-07-22T09:29:38;25.50;61.70
814;DHT22;389;48.710;9.392;2023-07-22T09:32:05;25.70;59.80
814;DHT22;389;48.710;9.392;2023-07-22T09:34:31;25.80;59.00
814;DHT22;389;48.710;9.392;2023-07-22T09:36:58;26.00;58.30
814;DHT22;389;48.710;9.392;2023-07-22T09:39:26;26.10;58.00
814;DHT22;389;48.710;9.392;2023-07-22T09:41:51;26.40;57.90
814;DHT22;389;48.710;9.392;2023-07-22T09:44:21;26.60;58.20
814;DHT22;389;48.710;9.392;2023-07-22T09:46:48;26.80;58.50
814;DHT22;389;48.710;9.392;2023-07-22T09:49:16;27.10;57.70
814;DHT22;389;48.710;9.392;2023-07-22T09:51:42;27.30;57.20
814;DHT22;389;48.710;9.392;2023-07-22T09:54:08;27.50;56.40
814;DHT22;389;48.710;9.392;2023-07-22T09:56:45;27.60;55.80
814;DHT22;389;48.710;9.392;2023-07-22T09:59:12;27.70;55.30
814;DHT22;389;48.710;9.392;2023-07-22T10:01:39;27.70;56.10
814;DHT22;389;48.710;9.392;2023-07-22T10:04:05;27.70;55.80
814;DHT22;389;48.710;9.392;2023-07-22T10:06:33;27.70;55.80
814;DHT22;389;48.710;9.392;2023-07-22T10:09:03;27.70;55.40
814;DHT22;389;48.710;9.392;2023-07-22T10:11:33;27.70;55.30
814;DHT22;389;48.710;9.392;2023-07-22T10:13:59;27.80;54.50
814;DHT22;389;48.710;9.392;2023-07-22T10:16:25;27.80;54.70
814;DHT22;389;48.710;9.392;2023-07-22T10:18:51;27.90;54.80
814;DHT22;389;48.710;9.392;2023-07-22T10:21:17;28.10;55.20
814;DHT22;389;48.710;9.392;2023-07-22T10:23:44;28.30;54.50
814;DHT22;389;48.710;9.392;2023-07-22T10:26:15;28.50;53.60
814;DHT22;389;48.710;9.392;2023-07-22T10:28:43;28.60;53.50
814;DHT22;389;48.710;9.392;2023-07-22T10:31:09;28.80;53.80
814;DHT22;389;48.710;9.392;2023-07-22T10:33:35;28.80;52.40
814;DHT22;389;48.710;9.392;2023-07-22T10:36:08;28.80;51.10
814;DHT22;389;48.710;9.392;2023-07-22T10:38:35;28.90;51.40
814;DHT22;389;48.710;9.392;2023-07-22T10:41:01;29.00;51.20
814;DHT22;389;48.710;9.392;2023-07-22T10:43:36;29.00;49.50
814;DHT22;389;48.710;9.392;2023-07-22T10:46:09;29.00;50.10
814;DHT22;389;48.710;9.392;2023-07-22T10:48:39;28.90;49.80
814;DHT22;389;48.710;9.392;2023-07-22T10:51:07;28.80;49.80
814;DHT22;389;48.710;9.392;2023-07-22T10:53:41;28.70;48.90
814;DHT22;389;48.710;9.392;2023-07-22T11:01:21;28.50;50.10
814;DHT22;389;48.710;9.392;2023-07-22T11:04:10;28.50;50.10
814;DHT22;389;48.710;9.392;2023-07-22T11:11:59;28.80;49.00
814;DHT22;389;48.710;9.392;2023-07-22T11:14:27;28.80;48.20
814;DHT22;389;48.710;9.392;2023-07-22T11:16:53;28.80;48.80
814;DHT22;389;48.710;9.392;2023-07-22T11:19:28;28.90;48.90
814;DHT22;389;48.710;9.392;2023-07-22T11:21:54;29.10;49.70
814;DHT22;389;48.710;9.392;2023-07-22T11:24:22;29.30;49.20
814;DHT22;389;48.710;9.392;2023-07-22T11:26:48;29.40;47.80
814;DHT22;389;48.710;9.392;2023-07-22T11:29:15;29.50;47.70
814;DHT22;389;48.710;9.392;2023-07-22T11:31:46;29.50;47.80
814;DHT22;389;48.710;9.392;2023-07-22T11:34:16;29.50;48.10
814;DHT22;389;48.710;9.392;2023-07-22T11:36:43;29.50;48.10
814;DHT22;389;48.710;9.392;2023-07-22T11:39:17;29.50;47.50
814;DHT22;389;48.710;9.392;2023-07-22T11:41:43;29.40;47.60
814;DHT22;389;48.710;9.392;2023-07-22T11:44:12;29.50;48.20
814;DHT22;389;48.710;9.392;2023-07-22T11:51:48;29.70;47.70
814;DHT22;389;48.710;9.392;2023-07-22T11:54:14;29.90;47.10
814;DHT22;389;48.710;9.392;2023-07-22T11:56:42;30.00;47.30
814;DHT22;389;48.710;9.392;2023-07-22T11:59:08;30.10;46.50
814;DHT22;389;48.710;9.392;2023-07-22T12:01:34;30.10;46.90
814;DHT22;389;48.710;9.392;2023-07-22T12:03:59;30.00;46.50
814;DHT22;389;48.710;9.392;2023-07-22T12:06:26;29.90;46.80
814;DHT22;389;48.710;9.392;2023-07-22T12:08:52;29.70;46.90
814;DHT22;389;48.710;9.392;2023-07-22T12:11:23;29.50;47.00
814;DHT22;389;48.710;9.392;2023-07-22T12:14:12;29.30;47.10
814;DHT22;389;48.710;9.392;2023-07-22T12:16:40;29.10;47.30
814;DHT22;389;48.710;9.392;2023-07-22T12:19:08;28.80;47.60
814;DHT22;389;48.710;9.392;2023-07-22T12:21:34;28.50;48.10
814;DHT22;389;48.710;9.392;2023-07-22T12:24:00;28.30;49.10
814;DHT22;389;48.710;9.392;2023-07-22T12:26:26;28.20;49.00
814;DHT22;389;48.710;9.392;2023-07-22T12:28:51;28.10;49.90
814;DHT22;389;48.710;9.392;2023-07-22T12:31:17;28.10;49.50
814;DHT22;389;48.710;9.392;2023-07-22T12:33:43;28.10;49.80
814;DHT22;389;48.710;9.392;2023-07-22T12:36:08;28.20;50.20
814;DHT22;389;48.710;9.392;2023-07-22T12:38:34;28.20;50.20
814;DHT22;389;48.710;9.392;2023-07-22T12:41:00;28.20;50.50
814;DHT22;389;48.710;9.392;2023-07-22T12:43:26;28.30;50.40
814;DHT22;389;48.710;9.392;2023-07-22T12:45:52;28.30;49.90
814;DHT22;389;48.710;9.392;2023-07-22T12:48:17;28.30;49.20
814;DHT22;389;48.710;9.392;2023-07-22T12:50:46;28.50;49.30
814;DHT22;389;48.710;9.392;2023-07-22T12:53:14;28.60;49.60
814;DHT22;389;48.710;9.392;2023-07-22T12:55:40;28.80;49.80
814;DHT22;389;48.710;9.392;2023-07-22T12:58:05;29.00;49.00
814;DHT22;389;48.710;9.392;2023-07-22T13:00:31;29.10;49.00
814;DHT22;389;48.710;9.392;2023-07-22T13:02:56;29.10;48.20
814;DHT22;389;48.710;9.392;2023-07-22T13:05:22;29.20;47.90
814;DHT22;389;48.710;9.392;2023-07-22T13:07:48;29.20;47.70
814;DHT22;389;48.710;9.392;2023-07-22T13:10:15;29.30;47.60
814;DHT22;389;48.710;9.392;2023-07-22T13:12:43;29.40;47.40
814;DHT22;389;48.710;9.392;2023-07-22T13:15:09;29.50;47.50
814;DHT22;389;48.710;9.392;2023-07-22T13:17:35;29.60;47.10
814;DHT22;389;48.710;9.392;2023-07-22T13:20:00;29.70;47.10
814;DHT22;389;48.710;9.392;2023-07-22T13:22:26;29.90;46.90
814;DHT22;389;48.710;9.392;2023-07-22T13:24:52;30.00;45.80
814;DHT22;389;48.710;9.392;2023-07-22T13:27:18;30.10;46.30
814;DHT22;389;48.710;9.392;2023-07-22T13:29:43;30.10;45.80
814;DHT22;389;48.710;9.392;2023-07-22T13:32:09;30.00;46.00
814;DHT22;389;48.710;9.392;2023-07-22T13:34:34;29.90;46.30
814;DHT22;389;48.710;9.392;2023-07-22T13:37:00;29.90;46.60
814;DHT22;389;48.710;9.392;2023-07-22T13:39:28;29.80;46.30
814;DHT22;389;48.710;9.392;2023-07-22T13:41:53;29.80;45.90
814;DHT22;389;48.710;9.392;2023-07-22T13:44:19;29.70;46.20
814;DHT22;389;48.710;9.392;2023-07-22T13:46:44;29.60;46.00
814;DHT22;389;48.710;9.392;2023-07-22T13:49:10;29.60;45.10
814;DHT22;389;48.710;9.392;2023-07-22T13:51:35;29.60;45.70
814;DHT22;389;48.710;9.392;2023-07-22T13:54:15;29.70;45.40
814;DHT22;389;48.710;9.392;2023-07-22T13:56:41;29.80;44.50
814;DHT22;389;48.710;9.392;2023-07-22T13:59:09;30.00;45.20
814;DHT22;389;48.710;9.392;2023-07-22T14:01:34;30.10;44.20
814;DHT22;389;48.710;9.392;2023-07-22T14:04:00;30.10;44.30
814;DHT22;389;48.710;9.392;2023-07-22T14:06:26;30.10;44.80
814;DHT22;389;48.710;9.392;2023-07-22T14:08:51;30.30;44.10
814;DHT22;389;48.710;9.392;2023-07-22T14:11:18;30.40;44.00
814;DHT22;389;48.710;9.392;2023-07-22T14:13:43;30.60;44.00
814;DHT22;389;48.710;9.392;2023-07-22T14:16:09;30.70;44.40
814;DHT22;389;48.710;9.392;2023-07-22T14:18:35;30.80;44.00
814;DHT22;389;48.710;9.392;2023-07-22T14:21:00;30.80;43.90
814;DHT22;389;48.710;9.392;2023-07-22T14:23:26;30.70;43.80
814;DHT22;389;48.710;9.392;2023-07-22T14:25:51;30.50;43.80
814;DHT22;389;48.710;9.392;2023-07-22T14:28:17;30.40;44.30
814;DHT22;389;48.710;9.392;2023-07-22T14:30:43;30.20;44.20
814;DHT22;389;48.710;9.392;2023-07-22T14:33:08;30.10;44.60
814;DHT22;389;48.710;9.392;2023-07-22T14:35:34;30.00;44.50
814;DHT22;389;48.710;9.392;2023-07-22T14:38:00;29.90;44.80
814;DHT22;389;48.710;9.392;2023-07-22T14:40:26;29.90;45.00
814;DHT22;389;48.710;9.392;2023-07-22T14:42:51;29.90;44.30
814;DHT22;389;48.710;9.392;2023-07-22T14:45:17;30.10;44.10
814;DHT22;389;48.710;9.392;2023-07-22T14:47:43;30.20;43.80
814;DHT22;389;48.710;9.392;2023-07-22T14:50:09;30.30;43.50
814;DHT22;389;48.710;9.392;2023-07-22T14:52:35;30.40;43.70
814;DHT22;389;48.710;9.392;2023-07-22T14:55:00;30.40;43.70
814;DHT22;389;48.710;9.392;2023-07-22T14:57:26;30.40;43.30
814;DHT22;389;48.710;9.392;2023-07-22T14:59:55;30.30;44.00
814;DHT22;389;48.710;9.392;2023-07-22T15:02:21;30.40;43.80
814;DHT22;389;48.710;9.392;2023-07-22T15:04:47;30.40;44.00
814;DHT22;389;48.710;9.392;2023-07-22T15:07:12;30.40;43.10
814;DHT22;389;48.710;9.392;2023-07-22T15:09:38;30.40;42.20
814;DHT22;389;48.710;9.392;2023-07-22T15:12:04;30.30;42.30
814;DHT22;389;48.710;9.392;2023-07-22T15:14:30;30.20;42.90
814;DHT22;389;48.710;9.392;2023-07-22T15:16:55;30.20;43.30
814;DHT22;389;48.710;9.392;2023-07-22T15:19:21;30.20;43.30
814;DHT22;389;48.710;9.392;2023-07-22T15:21:48;30.10;43.40
814;DHT22;389;48.710;9.392;2023-07-22T15:24:14;29.90;43.60
814;DHT22;389;48.710;9.392;2023-07-22T15:26:39;29.80;44.10
814;DHT22;389;48.710;9.392;2023-07-22T15:29:05;29.70;44.40
814;DHT22;389;48.710;9.392;2023-07-22T15:31:30;29.70;44.90
814;DHT22;389;48.710;9.392;2023-07-22T15:33:56;29.60;45.20
814;DHT22;389;48.710;9.392;2023-07-22T15:36:21;29.60;44.90
814;DHT22;389;48.710;9.392;2023-07-22T15:38:47;29.70;45.00
814;DHT22;389;48.710;9.392;2023-07-22T15:41:13;29.80;44.90
814;DHT22;389;48.710;9.392;2023-07-22T15:43:38;29.80;44.60
814;DHT22;389;48.710;9.392;2023-07-22T15:46:04;30.00;44.10
814;DHT22;389;48.710;9.392;2023-07-22T15:48:29;30.10;44.10
814;DHT22;389;48.710;9.392;2023-07-22T15:50:55;30.00;44.00
814;DHT22;389;48.710;9.392;2023-07-22T15:53:21;30.00;43.90
814;DHT22;389;48.710;9.392;2023-07-22T15:55:47;30.00;43.40
814;DHT22;389;48.710;9.392;2023-07-22T15:58:14;30.00;43.40
814;DHT22;389;48.710;9.392;2023-07-22T16:00:40;30.00;43.90
814;DHT22;389;48.710;9.392;2023-07-22T16:03:06;30.00;44.40
814;DHT22;389;48.710;9.392;2023-07-22T16:05:33;30.00;44.60
814;DHT22;389;48.710;9.392;2023-07-22T16:07:58;29.90;44.60
814;DHT22;389;48.710;9.392;2023-07-22T16:10:24;29.80;44.30
814;DHT22;389;48.710;9.392;2023-07-22T16:12:50;29.80;44.60
814;DHT22;389;48.710;9.392;2023-07-22T16:15:15;29.60;44.60
814;DHT22;389;48.710;9.392;2023-07-22T16:17:41;29.50;44.30
814;DHT22;389;48.710;9.392;2023-07-22T16:20:08;29.40;44.30
814;DHT22;389;48.710;9.392;2023-07-22T16:22:35;29.40;44.80
814;DHT22;389;48.710;9.392;2023-07-22T16:25:01;29.40;45.00
814;DHT22;389;48.710;9.392;2023-07-22T16:27:26;29.50;45.30
814;DHT22;389;48.710;9.392;2023-07-22T16:29:52;29.50;44.90
814;DHT22;389;48.710;9.392;2023-07-22T16:32:17;29.50;44.40
814;DHT22;389;48.710;9.392;2023-07-22T16:34:43;29.40;44.50
814;DHT22;389;48.710;9.392;2023-07-22T16:37:09;29.40;44.70
814;DHT22;389;48.710;9.392;2023-07-22T16:39:34;29.40;45.00
814;DHT22;389;48.710;9.392;2023-07-22T16:42:00;29.30;44.60
814;DHT22;389;48.710;9.392;2023-07-22T16:44:25;29.20;44.90
814;DHT22;389;48.710;9.392;2023-07-22T16:46:51;29.10;45.00